Time;durP1;ratioP1;P1;durP2;ratioP2;P2;SDS_P1;SDS_P2;PMS_P1;PMS_P2;Temp;Humidity;BMP_temperature;BMP_pressure;BME280_temperature;BME280_humidity;BME280_pressure;Samples;Min_cycle;Max_cycle;Signal;HPM_P1;HPM_P2
2024/04/05 00:00:31;;;;;;;0.40;0.30;;;;;;;;;;6256361;28;20470;-79
2024/04/05 00:03:31;;;;;;;0.57;0.50;;;;;;;;;;6255630;28;20025;-79
2024/04/05 00:06:32;;;;;;;0.63;0.40;;;;;;;;;;6265000;28;20394;-77
2024/04/05 00:09:33;;;;;;;0.73;0.33;;;;;;;;;;6259935;28;20032;-77
2024/04/05 00:12:33;;;;;;;;;;;;;;;;;;6258585;28;20331;-78
2024/04/05 00:15:37;;;;;;;0.47;0.30;;;;;;;;;;6245603;28;19963;-78
2024/04/05 00:18:38;;;;;;;0.30;0.30;;;;;;;;;;6259120;28;20026;-78
2024/04/05 00:21:38;;;;;;;0.30;0.20;;;;;;;;;;6247210;28;20108;-78
2024/04/05 00:24:38;;;;;;;0.30;0.20;;;;;;;;;;6260778;28;20124;-77
2024/04/05 00:27:38;;;;;;;0.20;0.17;;;;;;;;;;6261543;28;20024;-77
2024/04/05 00:30:39;;;;;;;0.30;0.20;;;;;;;;;;6257916;28;20025;-77
2024/04/05 00:33:39;;;;;;;2.77;0.30;;;;;;;;;;6264781;28;20466;-77
2024/04/05 00:36:39;;;;;;;0.20;0.13;;;;;;;;;;6261656;28;20532;-78
2024/04/05 00:39:39;;;;;;;0.50;0.20;;;;;;;;;;6253428;28;20462;-77
2024/04/05 00:42:40;;;;;;;0.73;0.17;;;;;;;;;;6249300;28;20501;-77
2024/04/05 00:45:40;;;;;;;0.20;0.20;;;;;;;;;;6265860;28;20021;-78
2024/04/05 00:48:41;;;;;;;0.20;0.13;;;;;;;;;;6260146;28;20417;-77
2024/04/05 00:51:41;;;;;;;0.28;0.28;;;;;;;;;;6261425;28;20087;-77
2024/04/05 00:54:42;;;;;;;0.30;0.30;;;;;;;;;;6256466;28;20083;-77
2024/04/05 00:57:42;;;;;;;0.45;0.10;;;;;;;;;;6267959;28;20041;-78
2024/04/05 01:00:42;;;;;;;0.13;0.13;;;;;;;;;;6263296;28;20035;-78
2024/04/05 01:03:43;;;;;;;0.47;0.15;;;;;;;;;;6261881;28;20029;-79
2024/04/05 01:06:43;;;;;;;0.10;0.10;;;;;;;;;;6261239;28;20071;-79
2024/04/05 01:09:43;;;;;;;0.53;0.20;;;;;;;;;;6248051;28;20045;-78
2024/04/05 01:12:43;;;;;;;0.37;0.13;;;;;;;;;;6254052;28;20387;-78
2024/04/05 01:15:44;;;;;;;0.30;0.30;;;;;;;;;;6259087;28;20142;-78
2024/04/05 01:18:44;;;;;;;0.53;0.20;;;;;;;;;;6265347;28;20086;-78
2024/04/05 01:21:47;;;;;;;0.10;0.10;;;;;;;;;;6253415;28;20086;-78
2024/04/05 01:24:47;;;;;;;0.25;0.10;;;;;;;;;;6267950;28;20025;-78
2024/04/05 01:27:48;;;;;;;0.10;0.10;;;;;;;;;;6259270;28;20433;-80
2024/04/05 01:30:48;;;;;;;0.50;0.20;;;;;;;;;;6261587;28;20125;-79
2024/04/05 01:33:48;;;;;;;0.10;0.10;;;;;;;;;;6255829;28;20191;-77
2024/04/05 01:36:49;;;;;;;0.10;0.10;;;;;;;;;;6262285;28;20509;-78
2024/04/05 01:39:50;;;;;;;0.20;0.20;;;;;;;;;;6261311;28;20046;-77
2024/04/05 01:42:50;;;;;;;0.20;0.10;;;;;;;;;;6270817;28;20032;-78
2024/04/05 01:45:51;;;;;;;0.17;0.15;;;;;;;;;;6263530;28;20017;-77
2024/04/05 01:48:51;;;;;;;0.13;0.10;;;;;;;;;;6266072;28;20470;-82
2024/04/05 01:51:51;;;;;;;0.13;0.13;;;;;;;;;;6252811;28;20486;-82
2024/04/05 01:54:52;;;;;;;0.10;0.10;;;;;;;;;;6258515;28;20075;-82
2024/04/05 01:57:52;;;;;;;0.30;0.20;;;;;;;;;;6260084;28;20426;-82
2024/04/05 02:01:01;;;;;;;0.47;0.20;;;;;;;;;;6266765;28;20029;-82
2024/04/05 02:04:02;;;;;;;0.13;0.13;;;;;;;;;;6261719;28;20040;-82
2024/04/05 02:07:02;;;;;;;0.32;0.20;;;;;;;;;;6279393;28;20025;-82
2024/04/05 02:10:02;;;;;;;0.77;0.20;;;;;;;;;;6267691;28;20049;-83
2024/04/05 02:13:04;;;;;;;0.23;0.20;;;;;;;;;;6268610;28;20033;-83
2024/04/05 02:16:04;;;;;;;0.40;0.30;;;;;;;;;;6257539;28;20029;-82
2024/04/05 02:19:04;;;;;;;0.20;0.20;;;;;;;;;;6262724;28;20060;-82
2024/04/05 02:22:05;;;;;;;0.30;0.27;;;;;;;;;;6250458;28;20029;-82
2024/04/05 02:25:06;;;;;;;0.17;0.17;;;;;;;;;;6268837;28;20036;-82
2024/04/05 02:28:06;;;;;;;0.10;0.10;;;;;;;;;;6264157;28;20032;-82
2024/04/05 02:31:09;;;;;;;0.10;0.10;;;;;;;;;;6261197;28;20382;-82
2024/04/05 02:34:09;;;;;;;0.00;0.00;;;;;;;;;;6252329;28;20029;-82
2024/04/05 02:37:09;;;;;;;0.20;0.10;;;;;;;;;;6255760;28;20041;-82
2024/04/05 02:40:10;;;;;;;0.10;0.10;;;;;;;;;;6261317;28;20429;-82
2024/04/05 02:43:10;;;;;;;0.33;0.13;;;;;;;;;;6270364;28;20417;-82
2024/04/05 02:46:11;;;;;;;0.10;0.10;;;;;;;;;;6256689;28;20033;-82
2024/04/05 02:49:11;;;;;;;0.10;0.10;;;;;;;;;;6260406;28;20458;-82
2024/04/05 02:52:12;;;;;;;0.17;0.10;;;;;;;;;;6250150;28;20072;-82
2024/04/05 02:55:12;;;;;;;0.28;0.20;;;;;;;;;;6262566;28;20373;-82
2024/04/05 02:58:12;;;;;;;0.30;0.20;;;;;;;;;;6266902;28;20037;-82
2024/04/05 03:01:13;;;;;;;0.10;0.10;;;;;;;;;;6247745;28;20009;-82
2024/04/05 03:04:13;;;;;;;0.20;0.20;;;;;;;;;;6242017;28;20021;-83
2024/04/05 03:07:14;;;;;;;0.10;0.10;;;;;;;;;;6254607;28;20486;-82
2024/04/05 03:10:14;;;;;;;0.47;0.20;;;;;;;;;;6266916;28;20492;-82
2024/04/05 03:13:14;;;;;;;0.53;0.20;;;;;;;;;;6254221;28;20040;-82
2024/04/05 03:16:14;;;;;;;0.20;0.10;;;;;;;;;;6257554;28;20044;-82
2024/04/05 03:19:14;;;;;;;0.20;0.20;;;;;;;;;;6259207;28;20036;-82
2024/04/05 03:22:15;;;;;;;0.10;0.10;;;;;;;;;;6252696;28;20016;-82
2024/04/05 03:25:15;;;;;;;0.40;0.10;;;;;;;;;;6265482;28;20155;-82
2024/04/05 03:28:15;;;;;;;0.20;0.20;;;;;;;;;;6262595;28;20025;-82
2024/04/05 03:31:15;;;;;;;0.10;0.10;;;;;;;;;;6254407;28;20053;-82
2024/04/05 03:34:16;;;;;;;0.10;0.10;;;;;;;;;;6258669;28;20520;-82
2024/04/05 03:37:16;;;;;;;0.27;0.10;;;;;;;;;;6259630;28;20107;-83
2024/04/05 03:40:16;;;;;;;0.80;0.20;;;;;;;;;;6261400;28;20021;-82
2024/04/05 03:43:16;;;;;;;0.50;0.20;;;;;;;;;;6254008;28;20268;-82
2024/04/05 03:46:17;;;;;;;0.30;0.23;;;;;;;;;;6264206;28;20013;-82
2024/04/05 03:49:17;;;;;;;0.30;0.20;;;;;;;;;;6263309;28;20393;-82
2024/04/05 03:52:17;;;;;;;0.20;0.20;;;;;;;;;;6253456;28;20489;-81
2024/04/05 03:55:17;;;;;;;0.43;0.20;;;;;;;;;;6256205;28;20481;-82
2024/04/05 03:58:18;;;;;;;0.20;0.20;;;;;;;;;;6256683;28;20450;-82
2024/04/05 04:01:18;;;;;;;1.70;0.30;;;;;;;;;;6258932;28;20484;-82
2024/04/05 04:04:18;;;;;;;0.30;0.17;;;;;;;;;;6259833;28;20470;-82
2024/04/05 04:07:19;;;;;;;1.13;0.30;;;;;;;;;;6267013;28;20484;-82
2024/04/05 04:10:20;;;;;;;0.35;0.20;;;;;;;;;;6253887;28;20462;-77
2024/04/05 04:13:22;;;;;;;0.20;0.20;;;;;;;;;;6256418;28;20045;-78
2024/04/05 04:16:22;;;;;;;0.30;0.30;;;;;;;;;;6270626;28;20048;-78
2024/04/05 04:19:22;;;;;;;0.20;0.20;;;;;;;;;;6260354;28;20021;-78
2024/04/05 04:22:23;;;;;;;0.20;0.20;;;;;;;;;;6271263;28;20017;-78
2024/04/05 04:25:23;;;;;;;0.20;0.20;;;;;;;;;;6272982;28;20055;-78
2024/04/05 04:28:24;;;;;;;0.30;0.20;;;;;;;;;;6259939;28;20041;-78
2024/04/05 04:31:25;;;;;;;0.93;0.65;;;;;;;;;;6257142;28;20025;-77
2024/04/05 04:34:25;;;;;;;;;;;;;;;;;;6263835;28;20462;-77
2024/04/05 04:37:25;;;;;;;1.00;0.80;;;;;;;;;;6258072;28;19936;-78
2024/04/05 04:40:26;;;;;;;0.60;0.47;;;;;;;;;;6265183;28;20029;-79
2024/04/05 04:43:26;;;;;;;0.40;0.40;;;;;;;;;;6266647;28;20070;-78
2024/04/05 04:46:27;;;;;;;0.65;0.30;;;;;;;;;;6259330;28;20106;-78
2024/04/05 04:49:27;;;;;;;0.40;0.40;;;;;;;;;;6264571;28;20029;-78
2024/04/05 04:52:27;;;;;;;0.50;0.20;;;;;;;;;;6260953;28;20037;-78
2024/04/05 04:55:27;;;;;;;0.50;0.27;;;;;;;;;;6261340;28;20497;-78
2024/04/05 04:58:29;;;;;;;0.60;0.30;;;;;;;;;;6258172;28;20420;-78
2024/04/05 05:01:29;;;;;;;;;;;;;;;;;;6247309;28;20517;-77
2024/04/05 05:04:29;;;;;;;0.82;0.30;;;;;;;;;;6258184;28;19913;-77
2024/04/05 05:07:31;;;;;;;0.53;0.30;;;;;;;;;;6247738;28;20025;-77
2024/04/05 05:10:31;;;;;;;0.20;0.20;;;;;;;;;;6262570;28;20287;-77
2024/04/05 05:13:32;;;;;;;0.50;0.33;;;;;;;;;;6261380;28;20036;-77
2024/04/05 05:16:32;;;;;;;0.57;0.33;;;;;;;;;;6254438;28;20637;-77
2024/04/05 05:19:32;;;;;;;0.20;0.20;;;;;;;;;;6248988;28;20544;-81
2024/04/05 05:22:33;;;;;;;0.40;0.30;;;;;;;;;;6262948;28;20033;-81
2024/04/05 05:25:33;;;;;;;0.37;0.30;;;;;;;;;;6255607;28;20109;-81
2024/04/05 05:28:34;;;;;;;0.70;0.40;;;;;;;;;;6258655;28;20032;-78
2024/04/05 05:31:34;;;;;;;0.98;0.30;;;;;;;;;;6266579;28;20466;-80
2024/04/05 05:34:35;;;;;;;0.70;0.40;;;;;;;;;;6261280;28;20032;-79
2024/04/05 05:37:35;;;;;;;0.20;0.20;;;;;;;;;;6252977;28;20417;-80
2024/04/05 05:40:35;;;;;;;0.20;0.20;;;;;;;;;;6254171;28;20017;-79
2024/04/05 05:43:35;;;;;;;0.40;0.30;;;;;;;;;;6253679;28;20032;-80
2024/04/05 05:46:36;;;;;;;0.23;0.23;;;;;;;;;;6259035;28;20021;-80
2024/04/05 05:49:36;;;;;;;0.47;0.30;;;;;;;;;;6263993;28;20560;-78
2024/04/05 05:52:36;;;;;;;0.50;0.30;;;;;;;;;;6262106;28;20572;-79
2024/04/05 05:55:36;;;;;;;0.33;0.30;;;;;;;;;;6250208;28;20013;-81
2024/04/05 05:58:39;;;;;;;0.30;0.20;;;;;;;;;;6249389;28;20465;-78
2024/04/05 06:01:39;;;;;;;0.30;0.22;;;;;;;;;;6242569;28;20057;-79
2024/04/05 06:04:40;;;;;;;0.80;0.27;;;;;;;;;;6265150;28;20051;-78
2024/04/05 06:07:41;;;;;;;3.42;1.95;;;;;;;;;;6268936;28;20061;-81
2024/04/05 06:10:41;;;;;;;;;;;;;;;;;;6246789;28;20534;-83
2024/04/05 06:13:42;;;;;;;0.80;0.80;;;;;;;;;;6245822;28;19945;-83
2024/04/05 06:16:42;;;;;;;0.50;0.50;;;;;;;;;;6264239;28;20035;-82
2024/04/05 06:19:42;;;;;;;0.70;0.40;;;;;;;;;;6263032;28;20075;-83
2024/04/05 06:22:42;;;;;;;0.53;0.40;;;;;;;;;;6254372;28;20083;-84
2024/04/05 06:25:50;;;;;;;0.40;0.30;;;;;;;;;;6246036;28;20018;-84
2024/04/05 06:28:50;;;;;;;1.58;0.22;;;;;;;;;;6255763;28;21299;-83
2024/04/05 06:31:50;;;;;;;1.67;0.33;;;;;;;;;;6273151;28;20032;-83
2024/04/05 06:34:51;;;;;;;0.20;0.20;;;;;;;;;;6253882;28;20024;-82
2024/04/05 06:37:51;;;;;;;0.20;0.20;;;;;;;;;;6252354;28;20435;-83
2024/04/05 06:40:56;;;;;;;0.10;0.10;;;;;;;;;;6241507;28;20025;-81
2024/04/05 06:43:56;;;;;;;0.50;0.30;;;;;;;;;;6258895;28;20575;-81
2024/04/05 06:46:56;;;;;;;0.27;0.20;;;;;;;;;;6235357;28;20026;-81
2024/04/05 06:49:56;;;;;;;0.30;0.30;;;;;;;;;;6235537;28;20087;-82
2024/04/05 06:52:58;;;;;;;0.53;0.30;;;;;;;;;;6248338;28;20021;-82
2024/04/05 06:55:58;;;;;;;0.50;0.30;;;;;;;;;;6248485;28;20021;-82
2024/04/05 06:58:58;;;;;;;0.63;0.30;;;;;;;;;;6234385;28;20102;-82
2024/04/05 07:01:58;;;;;;;;;;;;;;;;;;6257443;28;20020;-83
2024/04/05 07:04:59;;;;;;;0.10;0.10;;;;;;;;;;6246407;28;20028;-80
2024/04/05 07:07:59;;;;;;;;;;;;;;;;;;6259767;28;20039;-80
2024/04/05 07:10:59;;;;;;;1.27;0.30;;;;;;;;;;6258710;28;19935;-80
2024/04/05 07:13:59;;;;;;;;;;;;;;;;;;6263682;28;20091;-82
2024/04/05 07:16:59;;;;;;;0.10;0.10;;;;;;;;;;6256967;28;19916;-82
2024/04/05 07:20:02;;;;;;;0.17;0.17;;;;;;;;;;6252780;28;20037;-85
2024/04/05 07:23:03;;;;;;;1.63;1.27;;;;;;;;;;6260022;28;20467;-80
2024/04/05 07:26:03;;;;;;;;;;;;;;;;;;6269849;28;20036;-80
2024/04/05 07:29:03;;;;;;;1.48;0.75;;;;;;;;;;6261436;28;20016;-81
2024/04/05 07:32:04;;;;;;;;;;;;;;;;;;6263309;28;20044;-81
2024/04/05 07:35:05;;;;;;;0.30;0.27;;;;;;;;;;6266290;28;19925;-80
2024/04/05 07:38:06;;;;;;;;;;;;;;;;;;6259455;28;20268;-83
2024/04/05 07:41:06;;;;;;;0.40;0.30;;;;;;;;;;6263833;28;19912;-80
2024/04/05 07:44:06;;;;;;;0.25;0.10;;;;;;;;;;6254546;28;20022;-81
2024/04/05 07:47:07;;;;;;;0.52;0.22;;;;;;;;;;6257037;28;20428;-81
2024/04/05 07:50:08;;;;;;;0.52;0.30;;;;;;;;;;6255021;28;20021;-79
2024/04/05 07:53:08;;;;;;;0.52;0.28;;;;;;;;;;6253469;28;20111;-78
2024/04/05 07:56:08;;;;;;;;;;;;;;;;;;6254659;28;20035;-79
2024/04/05 07:59:10;;;;;;;0.57;0.30;;;;;;;;;;6254124;28;19909;-78
2024/04/05 08:02:10;;;;;;;0.50;0.10;;;;;;;;;;6252610;28;20022;-79
2024/04/05 08:05:11;;;;;;;2.67;1.63;;;;;;;;;;6245333;28;20588;-81
2024/04/05 08:08:12;;;;;;;1.10;0.98;;;;;;;;;;6252824;28;20048;-79
2024/04/05 08:11:12;;;;;;;0.63;0.50;;;;;;;;;;6250380;28;20482;-78
2024/04/05 08:14:12;;;;;;;1.07;0.57;;;;;;;;;;6248733;28;20070;-78
2024/04/05 08:17:13;;;;;;;2.07;1.63;;;;;;;;;;6257772;28;20299;-79
2024/04/05 08:20:13;;;;;;;;;;;;;;;;;;6253919;28;20440;-78
2024/04/05 08:23:13;;;;;;;1.10;0.83;;;;;;;;;;6255673;28;20304;-78
2024/04/05 08:26:13;;;;;;;0.70;0.60;;;;;;;;;;6251301;28;20022;-80
2024/04/05 08:29:14;;;;;;;0.40;0.40;;;;;;;;;;6247756;28;20779;-78
2024/04/05 08:32:14;;;;;;;0.50;0.43;;;;;;;;;;6249379;28;20056;-81
2024/04/05 08:35:14;;;;;;;;;;;;;;;;;;6267155;28;20635;-78
2024/04/05 08:38:14;;;;;;;0.30;0.30;;;;;;;;;;6259577;28;19913;-79
2024/04/05 08:41:18;;;;;;;0.20;0.20;;;;;;;;;;6257476;28;20382;-78
2024/04/05 08:44:18;;;;;;;0.63;0.20;;;;;;;;;;6241014;28;20264;-78
2024/04/05 08:47:18;;;;;;;;;;;;;;;;;;6249150;28;20425;-80
2024/04/05 08:50:18;;;;;;;0.10;0.10;;;;;;;;;;6250963;28;19912;-78
2024/04/05 08:53:19;;;;;;;;;;;;;;;;;;6264925;28;20409;-76
2024/04/05 08:56:19;;;;;;;0.40;0.20;;;;;;;;;;6265168;28;19912;-79
2024/04/05 08:59:19;;;;;;;0.40;0.30;;;;;;;;;;6258262;28;20017;-79
2024/04/05 09:02:20;;;;;;;0.90;0.20;;;;;;;;;;6260556;28;20782;-80
2024/04/05 09:05:22;;;;;;;0.40;0.20;;;;;;;;;;6260048;28;20032;-80
2024/04/05 09:08:22;;;;;;;0.13;0.10;;;;;;;;;;6252030;28;20026;-81
2024/04/05 09:11:23;;;;;;;0.20;0.20;;;;;;;;;;6251123;28;20028;-79
2024/04/05 09:14:23;;;;;;;0.37;0.23;;;;;;;;;;6261198;28;20288;-79
2024/04/05 09:17:24;;;;;;;0.40;0.13;;;;;;;;;;6256317;28;20329;-80
2024/04/05 09:20:26;;;;;;;1.27;0.22;;;;;;;;;;6262443;28;20295;-80
2024/04/05 09:23:26;;;;;;;1.77;0.40;;;;;;;;;;6259110;28;20071;-77
2024/04/05 09:26:26;;;;;;;1.80;0.20;;;;;;;;;;6247765;28;20037;-77
2024/04/05 09:29:27;;;;;;;2.10;1.17;;;;;;;;;;6233447;28;20267;-79
2024/04/05 09:32:27;;;;;;;1.38;1.00;;;;;;;;;;6247264;28;20288;-78
2024/04/05 09:35:28;;;;;;;0.80;0.70;;;;;;;;;;6254562;28;20049;-80
2024/04/05 09:38:31;;;;;;;0.70;0.50;;;;;;;;;;6253263;28;20322;-78
2024/04/05 09:41:33;;;;;;;0.20;0.20;;;;;;;;;;6265070;28;20033;-78
2024/04/05 09:44:33;;;;;;;0.88;0.40;;;;;;;;;;6257111;28;20021;-79
2024/04/05 09:47:34;;;;;;;0.98;0.40;;;;;;;;;;6256082;28;20490;-78
2024/04/05 09:50:35;;;;;;;0.50;0.40;;;;;;;;;;6253866;28;20048;-79
2024/04/05 09:53:40;;;;;;;1.52;0.30;;;;;;;;;;6245093;28;20067;-78
2024/04/05 09:56:40;;;;;;;0.28;0.20;;;;;;;;;;6242544;28;20037;-78
2024/04/05 09:59:42;;;;;;;0.40;0.30;;;;;;;;;;6249288;28;20056;-78
2024/04/05 10:02:46;;;;;;;0.30;0.30;;;;;;;;;;6248216;28;20028;-78
2024/04/05 10:05:46;;;;;;;0.57;0.30;;;;;;;;;;6251354;28;20034;-78
2024/04/05 10:08:46;;;;;;;0.60;0.40;;;;;;;;;;6248956;28;20060;-78
2024/04/05 10:11:52;;;;;;;0.40;0.30;;;;;;;;;;6250224;28;20253;-78
2024/04/05 10:14:53;;;;;;;0.20;0.20;;;;;;;;;;6254192;28;20321;-78
2024/04/05 10:17:54;;;;;;;0.68;0.40;;;;;;;;;;6246818;28;20018;-78
2024/04/05 10:21:21;;;;;;;0.50;0.30;;;;;;;;;;6256234;28;20027;-78
2024/04/05 10:24:21;;;;;;;0.45;0.20;;;;;;;;;;6244058;28;20095;-79
2024/04/05 10:27:22;;;;;;;0.67;0.30;;;;;;;;;;6241952;28;20021;-76
2024/04/05 10:30:22;;;;;;;0.63;0.30;;;;;;;;;;6250101;28;20275;-78
2024/04/05 10:33:23;;;;;;;0.20;0.20;;;;;;;;;;6249846;28;20033;-78
2024/04/05 10:36:23;;;;;;;0.73;0.30;;;;;;;;;;6245257;28;20296;-78
2024/04/05 10:39:23;;;;;;;0.45;0.40;;;;;;;;;;6247392;28;20509;-77
2024/04/05 10:42:26;;;;;;;0.50;0.30;;;;;;;;;;6248484;28;20064;-79
2024/04/05 10:45:28;;;;;;;0.32;0.22;;;;;;;;;;6244738;28;20280;-79
2024/04/05 10:48:30;;;;;;;0.65;0.40;;;;;;;;;;6247612;28;20036;-81
2024/04/05 10:51:31;;;;;;;0.63;0.20;;;;;;;;;;6249210;28;20033;-80
2024/04/05 10:54:32;;;;;;;0.40;0.30;;;;;;;;;;6246719;28;20041;-80
2024/04/05 10:57:33;;;;;;;1.10;0.30;;;;;;;;;;6245876;28;20546;-80
2024/04/05 11:00:33;;;;;;;0.43;0.28;;;;;;;;;;6244427;28;20030;-81
2024/04/05 11:03:34;;;;;;;1.50;0.30;;;;;;;;;;6252927;28;20038;-79
2024/04/05 11:06:34;;;;;;;0.60;0.30;;;;;;;;;;6247159;28;20030;-79
2024/04/05 11:09:38;;;;;;;1.85;0.40;;;;;;;;;;6251784;28;20106;-79
2024/04/05 11:12:38;;;;;;;0.30;0.20;;;;;;;;;;6252598;28;20478;-79
2024/04/05 11:15:38;;;;;;;1.90;1.17;;;;;;;;;;6241099;28;20033;-79
2024/04/05 11:18:39;;;;;;;1.00;0.70;;;;;;;;;;6227751;28;20026;-76
2024/04/05 11:21:39;;;;;;;0.60;0.52;;;;;;;;;;6245411;28;20748;-76
2024/04/05 11:24:46;;;;;;;1.17;0.50;;;;;;;;;;6249497;28;20033;-76
2024/04/05 11:27:47;;;;;;;1.13;0.30;;;;;;;;;;6244238;28;20272;-75
2024/04/05 11:30:47;;;;;;;0.23;0.20;;;;;;;;;;6245144;28;20532;-75
2024/04/05 11:33:48;;;;;;;0.20;0.20;;;;;;;;;;6245302;28;20288;-77
2024/04/05 11:36:48;;;;;;;0.40;0.30;;;;;;;;;;6248514;28;20122;-77
2024/04/05 11:39:49;;;;;;;0.37;0.30;;;;;;;;;;6251084;28;20203;-78
2024/04/05 11:42:49;;;;;;;0.50;0.40;;;;;;;;;;6245409;28;20377;-78
2024/04/05 11:45:50;;;;;;;0.57;0.40;;;;;;;;;;6250536;28;20454;-77
2024/04/05 11:48:50;;;;;;;0.47;0.22;;;;;;;;;;6242005;28;20314;-76
2024/04/05 11:51:50;;;;;;;0.43;0.30;;;;;;;;;;6248466;28;20845;-78
2024/04/05 11:54:51;;;;;;;0.30;0.20;;;;;;;;;;6248322;28;20772;-78
2024/04/05 11:57:51;;;;;;;0.40;0.33;;;;;;;;;;6245083;28;20505;-77
2024/04/05 12:00:51;;;;;;;0.22;0.20;;;;;;;;;;6243335;28;20777;-78
2024/04/05 12:03:51;;;;;;;0.90;0.30;;;;;;;;;;6247271;28;20021;-77
2024/04/05 12:06:52;;;;;;;0.80;0.30;;;;;;;;;;6254724;28;20271;-76
2024/04/05 12:09:52;;;;;;;0.63;0.37;;;;;;;;;;6250621;28;20573;-77
2024/04/05 12:12:52;;;;;;;0.80;0.40;;;;;;;;;;6246723;28;20319;-77
2024/04/05 12:15:52;;;;;;;0.60;0.50;;;;;;;;;;6245437;28;20284;-77
2024/04/05 12:18:53;;;;;;;0.90;0.40;;;;;;;;;;6229105;28;20268;-77
2024/04/05 12:21:53;;;;;;;0.90;0.30;;;;;;;;;;6248540;28;20776;-77
2024/04/05 12:24:53;;;;;;;1.48;0.40;;;;;;;;;;6249014;28;20367;-77
2024/04/05 12:27:55;;;;;;;0.40;0.30;;;;;;;;;;6259780;28;20060;-75
2024/04/05 12:30:55;;;;;;;0.50;0.10;;;;;;;;;;6250866;28;20252;-75
2024/04/05 12:33:55;;;;;;;0.40;0.30;;;;;;;;;;6247773;28;20475;-75
2024/04/05 12:36:55;;;;;;;0.80;0.27;;;;;;;;;;6249576;28;20792;-75
2024/04/05 12:39:56;;;;;;;0.53;0.20;;;;;;;;;;6250482;28;20755;-75
2024/04/05 12:42:57;;;;;;;0.52;0.30;;;;;;;;;;6250916;28;20256;-75
2024/04/05 12:46:06;;;;;;;1.13;0.10;;;;;;;;;;6249422;28;20492;-75
2024/04/05 12:49:06;;;;;;;0.20;0.20;;;;;;;;;;6249110;28;20494;-75
2024/04/05 12:52:07;;;;;;;0.43;0.33;;;;;;;;;;6248600;28;20033;-75
2024/04/05 12:55:07;;;;;;;0.30;0.30;;;;;;;;;;6231488;28;20342;-75
2024/04/05 12:58:07;;;;;;;0.38;0.30;;;;;;;;;;6227522;28;20462;-74
2024/04/05 13:01:09;;;;;;;0.30;0.30;;;;;;;;;;6250523;28;20100;-75
2024/04/05 13:04:09;;;;;;;0.40;0.30;;;;;;;;;;6247982;28;20029;-75
2024/04/05 13:07:09;;;;;;;1.03;0.50;;;;;;;;;;6260493;28;20064;-75
2024/04/05 13:10:10;;;;;;;0.50;0.30;;;;;;;;;;6247827;28;20264;-74
2024/04/05 13:13:10;;;;;;;0.77;0.40;;;;;;;;;;6248907;28;20025;-75
2024/04/05 13:16:10;;;;;;;0.40;0.30;;;;;;;;;;6249047;28;20025;-75
2024/04/05 13:19:12;;;;;;;0.22;0.22;;;;;;;;;;6248135;28;20836;-75
2024/04/05 13:22:12;;;;;;;0.35;0.25;;;;;;;;;;6248740;28;20029;-75
2024/04/05 13:25:12;;;;;;;0.27;0.27;;;;;;;;;;6247341;28;20025;-75
2024/04/05 13:28:12;;;;;;;0.40;0.30;;;;;;;;;;6231483;28;20726;-75
2024/04/05 13:31:12;;;;;;;0.37;0.30;;;;;;;;;;6246609;28;20847;-75
2024/04/05 13:34:14;;;;;;;0.30;0.20;;;;;;;;;;6247444;28;20830;-75
2024/04/05 13:37:15;;;;;;;0.65;0.40;;;;;;;;;;6247078;28;20312;-75
2024/04/05 13:40:15;;;;;;;0.40;0.30;;;;;;;;;;6244662;28;20068;-75
2024/04/05 13:43:15;;;;;;;0.20;0.20;;;;;;;;;;6225445;28;20261;-75
2024/04/05 13:46:15;;;;;;;1.08;0.65;;;;;;;;;;6224679;28;20470;-76
2024/04/05 13:49:16;;;;;;;1.70;0.70;;;;;;;;;;6247125;28;20068;-75
2024/04/05 13:52:16;;;;;;;0.87;0.67;;;;;;;;;;6247842;28;20021;-75
2024/04/05 13:55:17;;;;;;;0.85;0.50;;;;;;;;;;6249068;28;20287;-75
2024/04/05 13:58:17;;;;;;;1.13;0.35;;;;;;;;;;6249208;28;20029;-74
2024/04/05 14:01:18;;;;;;;0.60;0.40;;;;;;;;;;6247615;28;20048;-75
2024/04/05 14:04:18;;;;;;;0.40;0.40;;;;;;;;;;6246298;28;20112;-75
2024/04/05 14:07:18;;;;;;;0.47;0.33;;;;;;;;;;6259219;28;20029;-75
2024/04/05 14:10:19;;;;;;;1.07;0.40;;;;;;;;;;6247639;28;20268;-75
2024/04/05 14:13:20;;;;;;;0.50;0.50;;;;;;;;;;6248408;28;20380;-74
2024/04/05 14:16:20;;;;;;;0.30;0.30;;;;;;;;;;6244768;28;20025;-75
2024/04/05 14:19:21;;;;;;;0.20;0.20;;;;;;;;;;6247289;28;20568;-75
2024/04/05 14:22:21;;;;;;;0.40;0.23;;;;;;;;;;6243930;28;20028;-75
2024/04/05 14:25:21;;;;;;;0.30;0.20;;;;;;;;;;6248484;28;20260;-75
2024/04/05 14:28:22;;;;;;;0.40;0.30;;;;;;;;;;6247492;28;20256;-75
2024/04/05 14:31:23;;;;;;;2.95;0.30;;;;;;;;;;6247196;28;20264;-75
2024/04/05 14:34:24;;;;;;;0.60;0.40;;;;;;;;;;6246745;28;20486;-75
2024/04/05 14:37:25;;;;;;;0.55;0.30;;;;;;;;;;6234664;28;20065;-75
2024/04/05 14:40:25;;;;;;;0.43;0.20;;;;;;;;;;6227788;28;20029;-75
2024/04/05 14:43:25;;;;;;;0.32;0.30;;;;;;;;;;6248091;28;20037;-74
2024/04/05 14:46:26;;;;;;;0.90;0.23;;;;;;;;;;6247012;28;20571;-75
2024/04/05 14:49:26;;;;;;;0.40;0.40;;;;;;;;;;6247056;28;20756;-77
2024/04/05 14:52:26;;;;;;;0.50;0.22;;;;;;;;;;6245053;28;20770;-77
2024/04/05 14:55:26;;;;;;;0.73;0.38;;;;;;;;;;6248109;28;20037;-77
2024/04/05 14:58:27;;;;;;;0.70;0.50;;;;;;;;;;6247917;28;20017;-77
2024/04/05 15:01:27;;;;;;;0.37;0.37;;;;;;;;;;6248146;28;20055;-77
2024/04/05 15:04:27;;;;;;;0.30;0.30;;;;;;;;;;6247953;28;20667;-77
2024/04/05 15:07:27;;;;;;;0.40;0.30;;;;;;;;;;6270819;28;20028;-77
2024/04/05 15:10:30;;;;;;;1.20;0.40;;;;;;;;;;6272282;28;20371;-77
2024/04/05 15:13:30;;;;;;;1.00;0.32;;;;;;;;;;6247240;28;20288;-77
2024/04/05 15:16:31;;;;;;;0.20;0.20;;;;;;;;;;6247462;28;20088;-77
2024/04/05 15:19:31;;;;;;;0.22;0.20;;;;;;;;;;6244498;28;20454;-77
2024/04/05 15:22:31;;;;;;;0.33;0.33;;;;;;;;;;6246158;28;20109;-77
2024/04/05 15:25:32;;;;;;;0.37;0.30;;;;;;;;;;6247670;28;20363;-77
2024/04/05 15:28:34;;;;;;;0.37;0.20;;;;;;;;;;6247656;28;20025;-77
2024/04/05 15:31:37;;;;;;;1.25;0.28;;;;;;;;;;6245060;28;20685;-77
2024/04/05 15:34:37;;;;;;;0.52;0.32;;;;;;;;;;6233986;28;20536;-77
2024/04/05 15:37:38;;;;;;;0.50;0.30;;;;;;;;;;6246369;28;20063;-77
2024/04/05 15:40:38;;;;;;;1.40;0.30;;;;;;;;;;6245223;28;20273;-77
2024/04/05 15:43:39;;;;;;;0.20;0.20;;;;;;;;;;6226614;28;20080;-77
2024/04/05 15:46:39;;;;;;;0.45;0.30;;;;;;;;;;6227962;28;20506;-77
2024/04/05 15:49:40;;;;;;;0.50;0.40;;;;;;;;;;6238417;28;20055;-77
2024/04/05 15:52:40;;;;;;;0.40;0.30;;;;;;;;;;6240962;28;20067;-77
2024/04/05 15:55:44;;;;;;;0.30;0.30;;;;;;;;;;6252170;28;20307;-77
2024/04/05 15:58:45;;;;;;;0.98;0.40;;;;;;;;;;6251889;28;20024;-77
2024/04/05 16:01:45;;;;;;;0.52;0.40;;;;;;;;;;6252089;28;20111;-77
2024/04/05 16:04:46;;;;;;;0.43;0.40;;;;;;;;;;6255862;28;20490;-77
2024/04/05 16:07:46;;;;;;;0.35;0.32;;;;;;;;;;6250107;28;20759;-77
2024/04/05 16:10:56;;;;;;;0.40;0.30;;;;;;;;;;6226993;28;20029;-77
2024/04/05 16:13:56;;;;;;;0.80;0.30;;;;;;;;;;6239973;28;20053;-77
2024/04/05 16:16:56;;;;;;;0.55;0.40;;;;;;;;;;6251762;28;20524;-77
2024/04/05 16:20:02;;;;;;;0.50;0.30;;;;;;;;;;6249107;28;20113;-77
2024/04/05 16:23:02;;;;;;;0.45;0.30;;;;;;;;;;6250585;28;20835;-77
2024/04/05 16:26:03;;;;;;;0.30;0.30;;;;;;;;;;6250031;28;20021;-77
2024/04/05 16:29:04;;;;;;;0.57;0.35;;;;;;;;;;6265071;28;20044;-77
2024/04/05 16:32:04;;;;;;;0.40;0.30;;;;;;;;;;6252267;28;20037;-77
2024/04/05 16:35:08;;;;;;;0.38;0.38;;;;;;;;;;6261835;28;20067;-77
2024/04/05 16:38:08;;;;;;;0.50;0.30;;;;;;;;;;6266585;28;20043;-77
2024/04/05 16:41:12;;;;;;;0.57;0.37;;;;;;;;;;6255557;28;20036;-77
2024/04/05 16:44:13;;;;;;;0.75;0.38;;;;;;;;;;6256458;28;20601;-76
2024/04/05 16:47:13;;;;;;;0.25;0.25;;;;;;;;;;6266603;28;20028;-75
2024/04/05 16:50:14;;;;;;;0.30;0.30;;;;;;;;;;6254138;28;20861;-79
2024/04/05 16:53:14;;;;;;;0.50;0.40;;;;;;;;;;6257052;28;20036;-78
2024/04/05 16:56:17;;;;;;;0.30;0.30;;;;;;;;;;6251108;28;20382;-77
2024/04/05 16:59:17;;;;;;;0.55;0.30;;;;;;;;;;6240091;28;20303;-77
2024/04/05 17:02:18;;;;;;;0.53;0.40;;;;;;;;;;6241777;28;20029;-78
2024/04/05 17:05:20;;;;;;;0.57;0.43;;;;;;;;;;6251234;28;20284;-77
2024/04/05 17:08:21;;;;;;;0.30;0.20;;;;;;;;;;6246212;28;20299;-77
2024/04/05 17:11:23;;;;;;;0.40;0.40;;;;;;;;;;6244521;28;20022;-79
2024/04/05 17:14:23;;;;;;;1.00;0.43;;;;;;;;;;6244288;28;20033;-81
2024/04/05 17:17:23;;;;;;;0.37;0.37;;;;;;;;;;6247246;28;20116;-81
2024/04/05 17:20:24;;;;;;;0.50;0.40;;;;;;;;;;6238087;28;20605;-78
2024/04/05 17:23:25;;;;;;;0.70;0.35;;;;;;;;;;6246646;28;20736;-78
2024/04/05 17:26:26;;;;;;;0.43;0.40;;;;;;;;;;6247353;28;20135;-78
2024/04/05 17:29:26;;;;;;;0.90;0.60;;;;;;;;;;6248695;28;20029;-78
2024/04/05 17:32:27;;;;;;;1.30;0.60;;;;;;;;;;6244520;28;20116;-80
2024/04/05 17:35:27;;;;;;;0.70;0.60;;;;;;;;;;6243700;28;20053;-80
2024/04/05 17:38:27;;;;;;;0.70;0.65;;;;;;;;;;6240442;28;20061;-82
2024/04/05 17:41:28;;;;;;;0.73;0.70;;;;;;;;;;6244045;28;20021;-79
2024/04/05 17:44:29;;;;;;;0.70;0.52;;;;;;;;;;6251475;28;20632;-80
2024/04/05 17:47:29;;;;;;;1.52;0.60;;;;;;;;;;6233981;28;20087;-79
2024/04/05 17:50:34;;;;;;;0.60;0.40;;;;;;;;;;6246396;28;20033;-79
2024/04/05 17:53:34;;;;;;;1.33;0.90;;;;;;;;;;6246654;28;20296;-79
2024/04/05 17:56:34;;;;;;;6.50;4.50;;;;;;;;;;6244926;28;20036;-81
2024/04/05 17:59:35;;;;;;;6.95;5.18;;;;;;;;;;6242669;28;20307;-82
2024/04/05 18:02:35;;;;;;;4.63;3.13;;;;;;;;;;6242843;28;20564;-79
2024/04/05 18:05:36;;;;;;;2.95;2.15;;;;;;;;;;6244762;28;20114;-80
2024/04/05 18:08:36;;;;;;;2.43;1.93;;;;;;;;;;6244413;28;20041;-80